sensor_id;sensor_type;location;lat;lon;timestamp;temperature;humidity
39849;DHT22;25518;47.878;15.914;2023-03-26T00:00:41;4.20;99.90
39849;DHT22;25518;47.878;15.914;2023-03-26T00:03:34;4.20;99.90
39849;DHT22;25518;47.878;15.914;2023-03-26T00:06:31;4.10;99.90
39849;DHT22;25518;47.878;15.914;2023-03-26T00:09:24;3.60;99.90
39849;DHT22;25518;47.878;15.914;2023-03-26T00:12:14;4.20;99.90
39849;DHT22;25518;47.878;15.914;2023-03-26T00:15:03;4.40;99.90
39849;DHT22;25518;47.878;15.914;2023-03-26T00:17:53;4.70;99.90
39849;DHT22;25518;47.878;15.914;2023-03-26T00:20:44;4.70;99.90
39849;DHT22;25518;47.878;15.914;2023-03-26T00:23:35;4.80;99.90
39849;DHT22;25518;47.878;15.914;2023-03-26T00:26:26;5.10;99.90
39849;DHT22;25518;47.878;15.914;2023-03-26T00:29:17;5.20;99.90
39849;DHT22;25518;47.878;15.914;2023-03-26T00:32:07;4.90;99.90
39849;DHT22;25518;47.878;15.914;2023-03-26T00:34:57;4.80;99.90
39849;DHT22;25518;47.878;15.914;2023-03-26T00:37:46;5.00;99.90
39849;DHT22;25518;47.878;15.914;2023-03-26T00:40:39;5.00;99.90
39849;DHT22;25518;47.878;15.914;2023-03-26T00:43:34;5.00;99.90
39849;DHT22;25518;47.878;15.914;2023-03-26T00:46:26;5.20;99.90
39849;DHT22;25518;47.878;15.914;2023-03-26T00:49:16;5.40;99.90
39849;DHT22;25518;47.878;15.914;2023-03-26T00:52:06;5.40;99.90
39849;DHT22;25518;47.878;15.914;2023-03-26T00:54:57;5.40;99.90
39849;DHT22;25518;47.878;15.914;2023-03-26T00:57:46;5.20;99.90
39849;DHT22;25518;47.878;15.914;2023-03-26T01:00:41;5.10;99.90
39849;DHT22;25518;47.878;15.914;2023-03-26T01:03:34;5.00;99.90
39849;DHT22;25518;47.878;15.914;2023-03-26T01:06:28;5.00;99.90
39849;DHT22;25518;47.878;15.914;2023-03-26T01:09:31;5.10;99.90
39849;DHT22;25518;47.878;15.914;2023-03-26T01:12:24;5.70;99.90
39849;DHT22;25518;47.878;15.914;2023-03-26T01:15:14;6.10;99.90
39849;DHT22;25518;47.878;15.914;2023-03-26T01:18:05;5.80;99.90
39849;DHT22;25518;47.878;15.914;2023-03-26T01:20:59;5.70;99.90
39849;DHT22;25518;47.878;15.914;2023-03-26T01:23:59;5.60;99.90
39849;DHT22;25518;47.878;15.914;2023-03-26T01:30:36;6.20;99.90
39849;DHT22;25518;47.878;15.914;2023-03-26T01:36:18;6.40;99.90
39849;DHT22;25518;47.878;15.914;2023-03-26T01:42:05;6.30;99.90
39849;DHT22;25518;47.878;15.914;2023-03-26T01:45:06;6.40;99.90
39849;DHT22;25518;47.878;15.914;2023-03-26T01:47:59;6.40;99.90
39849;DHT22;25518;47.878;15.914;2023-03-26T01:50:48;6.60;99.90
39849;DHT22;25518;47.878;15.914;2023-03-26T01:53:44;6.50;99.90
39849;DHT22;25518;47.878;15.914;2023-03-26T02:00:37;6.60;99.90
39849;DHT22;25518;47.878;15.914;2023-03-26T02:03:35;6.60;99.90
39849;DHT22;25518;47.878;15.914;2023-03-26T02:06:35;6.70;99.90
39849;DHT22;25518;47.878;15.914;2023-03-26T02:09:30;6.60;99.90
39849;DHT22;25518;47.878;15.914;2023-03-26T02:12:22;6.60;99.90
39849;DHT22;25518;47.878;15.914;2023-03-26T02:15:12;6.70;99.90
39849;DHT22;25518;47.878;15.914;2023-03-26T02:18:02;6.70;99.90
39849;DHT22;25518;47.878;15.914;2023-03-26T02:20:52;6.60;99.90
39849;DHT22;25518;47.878;15.914;2023-03-26T02:23:42;6.80;99.90
39849;DHT22;25518;47.878;15.914;2023-03-26T02:26:35;7.00;99.90
39849;DHT22;25518;47.878;15.914;2023-03-26T02:29:26;6.80;99.90
39849;DHT22;25518;47.878;15.914;2023-03-26T02:32:15;6.90;99.90
39849;DHT22;25518;47.878;15.914;2023-03-26T02:35:07;6.90;99.90
39849;DHT22;25518;47.878;15.914;2023-03-26T02:37:57;6.90;99.90
39849;DHT22;25518;47.878;15.914;2023-03-26T02:40:47;6.70;99.90
39849;DHT22;25518;47.878;15.914;2023-03-26T02:43:36;6.80;99.90
39849;DHT22;25518;47.878;15.914;2023-03-26T02:46:26;6.80;99.90
39849;DHT22;25518;47.878;15.914;2023-03-26T02:49:16;6.80;99.90
39849;DHT22;25518;47.878;15.914;2023-03-26T02:52:06;6.70;99.90
39849;DHT22;25518;47.878;15.914;2023-03-26T02:54:55;6.50;99.90
39849;DHT22;25518;47.878;15.914;2023-03-26T02:57:46;6.50;99.90
39849;DHT22;25518;47.878;15.914;2023-03-26T03:00:35;6.50;99.90
39849;DHT22;25518;47.878;15.914;2023-03-26T03:17:31;6.20;99.90
39849;DHT22;25518;47.878;15.914;2023-03-26T03:20:21;6.00;99.90
39849;DHT22;25518;47.878;15.914;2023-03-26T03:23:11;5.90;99.90
39849;DHT22;25518;47.878;15.914;2023-03-26T03:26:01;5.80;99.90
39849;DHT22;25518;47.878;15.914;2023-03-26T03:28:51;5.80;99.90
39849;DHT22;25518;47.878;15.914;2023-03-26T03:31:40;5.90;99.90
39849;DHT22;25518;47.878;15.914;2023-03-26T03:34:30;5.90;99.90
39849;DHT22;25518;47.878;15.914;2023-03-26T03:37:20;5.90;99.90
39849;DHT22;25518;47.878;15.914;2023-03-26T03:40:10;5.90;99.90
39849;DHT22;25518;47.878;15.914;2023-03-26T03:43:00;5.80;99.90
39849;DHT22;25518;47.878;15.914;2023-03-26T03:45:49;5.60;99.90
39849;DHT22;25518;47.878;15.914;2023-03-26T03:48:39;5.70;99.90
39849;DHT22;25518;47.878;15.914;2023-03-26T03:51:29;5.60;99.90
39849;DHT22;25518;47.878;15.914;2023-03-26T03:54:19;5.50;99.90
39849;DHT22;25518;47.878;15.914;2023-03-26T03:57:09;5.40;99.90
39849;DHT22;25518;47.878;15.914;2023-03-26T03:59:59;5.30;99.90
39849;DHT22;25518;47.878;15.914;2023-03-26T04:02:48;5.40;99.90
39849;DHT22;25518;47.878;15.914;2023-03-26T04:05:38;5.40;99.90
39849;DHT22;25518;47.878;15.914;2023-03-26T04:08:28;5.30;99.90
39849;DHT22;25518;47.878;15.914;2023-03-26T04:11:18;5.30;99.90
39849;DHT22;25518;47.878;15.914;2023-03-26T04:14:08;5.30;99.90
39849;DHT22;25518;47.878;15.914;2023-03-26T04:16:58;5.10;99.90
39849;DHT22;25518;47.878;15.914;2023-03-26T04:19:49;5.20;99.90
39849;DHT22;25518;47.878;15.914;2023-03-26T04:22:42;5.20;99.90
39849;DHT22;25518;47.878;15.914;2023-03-26T04:25:32;5.20;99.90
39849;DHT22;25518;47.878;15.914;2023-03-26T04:28:33;5.30;99.90
39849;DHT22;25518;47.878;15.914;2023-03-26T04:31:25;5.20;99.90
39849;DHT22;25518;47.878;15.914;2023-03-26T04:34:21;5.20;99.90
39849;DHT22;25518;47.878;15.914;2023-03-26T04:37:23;5.20;99.90
39849;DHT22;25518;47.878;15.914;2023-03-26T04:40:19;5.30;99.90
39849;DHT22;25518;47.878;15.914;2023-03-26T04:43:12;5.30;99.90
39849;DHT22;25518;47.878;15.914;2023-03-26T04:46:02;5.10;99.90
39849;DHT22;25518;47.878;15.914;2023-03-26T04:48:53;4.80;99.90
39849;DHT22;25518;47.878;15.914;2023-03-26T04:51:43;4.80;99.90
39849;DHT22;25518;47.878;15.914;2023-03-26T04:54:35;4.80;99.90
39849;DHT22;25518;47.878;15.914;2023-03-26T04:57:29;4.90;99.90
39849;DHT22;25518;47.878;15.914;2023-03-26T05:00:21;4.70;99.90
39849;DHT22;25518;47.878;15.914;2023-03-26T05:03:11;4.50;99.90
39849;DHT22;25518;47.878;15.914;2023-03-26T05:06:01;4.70;99.90
39849;DHT22;25518;47.878;15.914;2023-03-26T05:08:51;4.70;99.90
39849;DHT22;25518;47.878;15.914;2023-03-26T05:11:41;4.80;99.90
39849;DHT22;25518;47.878;15.914;2023-03-26T05:14:30;4.70;99.90
39849;DHT22;25518;47.878;15.914;2023-03-26T05:17:21;4.80;99.90
39849;DHT22;25518;47.878;15.914;2023-03-26T05:20:28;4.80;99.90
39849;DHT22;25518;47.878;15.914;2023-03-26T05:23:19;4.90;99.90
39849;DHT22;25518;47.878;15.914;2023-03-26T05:26:09;4.80;99.90
39849;DHT22;25518;47.878;15.914;2023-03-26T05:28:59;4.90;99.90
39849;DHT22;25518;47.878;15.914;2023-03-26T05:31:50;4.80;99.90
39849;DHT22;25518;47.878;15.914;2023-03-26T05:34:40;4.90;99.90
39849;DHT22;25518;47.878;15.914;2023-03-26T05:37:30;4.80;99.90
39849;DHT22;25518;47.878;15.914;2023-03-26T05:40:20;4.80;99.90
39849;DHT22;25518;47.878;15.914;2023-03-26T05:43:09;4.80;99.90
39849;DHT22;25518;47.878;15.914;2023-03-26T05:45:59;4.80;99.90
39849;DHT22;25518;47.878;15.914;2023-03-26T05:48:49;4.80;99.90
39849;DHT22;25518;47.878;15.914;2023-03-26T05:51:40;4.80;99.90
39849;DHT22;25518;47.878;15.914;2023-03-26T05:54:30;3.50;99.90
39849;DHT22;25518;47.878;15.914;2023-03-26T05:57:19;5.00;99.90
39849;DHT22;25518;47.878;15.914;2023-03-26T06:00:10;5.00;99.90
39849;DHT22;25518;47.878;15.914;2023-03-26T06:03:00;5.00;99.90
39849;DHT22;25518;47.878;15.914;2023-03-26T06:05:50;5.10;99.90
39849;DHT22;25518;47.878;15.914;2023-03-26T06:08:43;5.10;99.90
39849;DHT22;25518;47.878;15.914;2023-03-26T06:11:35;5.10;99.90
39849;DHT22;25518;47.878;15.914;2023-03-26T06:14:24;5.20;99.90
39849;DHT22;25518;47.878;15.914;2023-03-26T06:17:14;5.20;99.90
39849;DHT22;25518;47.878;15.914;2023-03-26T06:20:04;5.20;99.90
39849;DHT22;25518;47.878;15.914;2023-03-26T06:22:55;5.10;99.90
39849;DHT22;25518;47.878;15.914;2023-03-26T06:25:45;5.10;99.90
39849;DHT22;25518;47.878;15.914;2023-03-26T06:28:36;5.20;99.90
39849;DHT22;25518;47.878;15.914;2023-03-26T06:31:25;5.20;99.90
39849;DHT22;25518;47.878;15.914;2023-03-26T06:34:15;5.20;99.90
39849;DHT22;25518;47.878;15.914;2023-03-26T06:37:05;5.10;99.90
39849;DHT22;25518;47.878;15.914;2023-03-26T06:39:54;5.10;99.90
39849;DHT22;25518;47.878;15.914;2023-03-26T06:42:44;5.10;99.90
39849;DHT22;25518;47.878;15.914;2023-03-26T06:45:34;5.20;99.90
39849;DHT22;25518;47.878;15.914;2023-03-26T06:48:23;5.30;99.90
39849;DHT22;25518;47.878;15.914;2023-03-26T06:51:13;5.60;99.90
39849;DHT22;25518;47.878;15.914;2023-03-26T06:54:04;5.80;99.90
39849;DHT22;25518;47.878;15.914;2023-03-26T06:56:53;5.80;99.90
39849;DHT22;25518;47.878;15.914;2023-03-26T06:59:43;6.00;99.90
39849;DHT22;25518;47.878;15.914;2023-03-26T07:02:33;6.10;99.90
39849;DHT22;25518;47.878;15.914;2023-03-26T07:05:24;6.30;99.90
39849;DHT22;25518;47.878;15.914;2023-03-26T07:08:14;6.30;99.90
39849;DHT22;25518;47.878;15.914;2023-03-26T07:11:04;6.20;99.90
39849;DHT22;25518;47.878;15.914;2023-03-26T07:13:54;6.30;99.90
39849;DHT22;25518;47.878;15.914;2023-03-26T07:16:44;6.40;99.90
39849;DHT22;25518;47.878;15.914;2023-03-26T07:19:34;6.70;99.90
39849;DHT22;25518;47.878;15.914;2023-03-26T07:22:24;7.20;99.90
39849;DHT22;25518;47.878;15.914;2023-03-26T07:25:15;7.40;99.90
39849;DHT22;25518;47.878;15.914;2023-03-26T07:28:28;7.50;99.90
39849;DHT22;25518;47.878;15.914;2023-03-26T07:31:43;7.60;99.90
39849;DHT22;25518;47.878;15.914;2023-03-26T07:34:55;7.70;99.90
39849;DHT22;25518;47.878;15.914;2023-03-26T07:41:14;8.00;99.90
39849;DHT22;25518;47.878;15.914;2023-03-26T07:44:54;8.20;99.90
39849;DHT22;25518;47.878;15.914;2023-03-26T07:47:32;8.40;99.90
39849;DHT22;25518;47.878;15.914;2023-03-26T07:50:23;8.60;99.90
39849;DHT22;25518;47.878;15.914;2023-03-26T07:53:14;8.80;99.90
39849;DHT22;25518;47.878;15.914;2023-03-26T07:56:28;8.90;99.90
39849;DHT22;25518;47.878;15.914;2023-03-26T07:59:28;9.20;99.90
39849;DHT22;25518;47.878;15.914;2023-03-26T08:05:46;9.60;99.90
39849;DHT22;25518;47.878;15.914;2023-03-26T08:08:39;9.40;99.90
39849;DHT22;25518;47.878;15.914;2023-03-26T08:18:07;9.50;99.90
39849;DHT22;25518;47.878;15.914;2023-03-26T08:24:04;9.50;99.90
39849;DHT22;25518;47.878;15.914;2023-03-26T08:27:04;9.50;99.90
39849;DHT22;25518;47.878;15.914;2023-03-26T08:30:08;9.80;99.90
39849;DHT22;25518;47.878;15.914;2023-03-26T08:36:00;10.10;99.90
39849;DHT22;25518;47.878;15.914;2023-03-26T08:38:50;10.20;99.90
39849;DHT22;25518;47.878;15.914;2023-03-26T08:56:25;11.00;99.90
39849;DHT22;25518;47.878;15.914;2023-03-26T08:59:44;11.10;99.90
39849;DHT22;25518;47.878;15.914;2023-03-26T09:09:54;11.50;99.90
39849;DHT22;25518;47.878;15.914;2023-03-26T09:25:52;11.80;98.20
39849;DHT22;25518;47.878;15.914;2023-03-26T09:54:04;12.30;97.40
39849;DHT22;25518;47.878;15.914;2023-03-26T09:56:43;12.30;96.60
39849;DHT22;25518;47.878;15.914;2023-03-26T09:59:56;12.20;98.30
39849;DHT22;25518;47.878;15.914;2023-03-26T10:02:57;12.30;96.70
39849;DHT22;25518;47.878;15.914;2023-03-26T10:15:12;12.40;97.70
39849;DHT22;25518;47.878;15.914;2023-03-26T10:21:13;12.30;96.10
39849;DHT22;25518;47.878;15.914;2023-03-26T10:27:39;12.60;94.20
39849;DHT22;25518;47.878;15.914;2023-03-26T10:33:27;12.90;93.30
39849;DHT22;25518;47.878;15.914;2023-03-26T10:37:05;12.80;94.90
39849;DHT22;25518;47.878;15.914;2023-03-26T10:49:44;13.30;93.10
39849;DHT22;25518;47.878;15.914;2023-03-26T10:52:45;13.20;94.10
39849;DHT22;25518;47.878;15.914;2023-03-26T10:55:40;13.40;92.90
39849;DHT22;25518;47.878;15.914;2023-03-26T10:58:34;13.50;92.40
39849;DHT22;25518;47.878;15.914;2023-03-26T11:04:56;13.80;93.00
39849;DHT22;25518;47.878;15.914;2023-03-26T11:08:01;14.00;93.20
39849;DHT22;25518;47.878;15.914;2023-03-26T11:14:09;14.10;95.00
39849;DHT22;25518;47.878;15.914;2023-03-26T11:17:21;14.20;94.00
39849;DHT22;25518;47.878;15.914;2023-03-26T11:20:56;14.00;94.10
39849;DHT22;25518;47.878;15.914;2023-03-26T11:23:35;13.80;92.80
39849;DHT22;25518;47.878;15.914;2023-03-26T11:32:19;13.80;91.80
39849;DHT22;25518;47.878;15.914;2023-03-26T11:35:16;13.70;92.80
39849;DHT22;25518;47.878;15.914;2023-03-26T11:38:31;13.70;93.80
39849;DHT22;25518;47.878;15.914;2023-03-26T11:41:27;13.40;91.80
39849;DHT22;25518;47.878;15.914;2023-03-26T11:44:23;13.40;91.40
39849;DHT22;25518;47.878;15.914;2023-03-26T11:47:19;13.30;92.00
39849;DHT22;25518;47.878;15.914;2023-03-26T11:50:22;13.30;94.90
39849;DHT22;25518;47.878;15.914;2023-03-26T11:53:16;13.30;94.30
39849;DHT22;25518;47.878;15.914;2023-03-26T12:02:24;13.50;93.70
39849;DHT22;25518;47.878;15.914;2023-03-26T12:05:19;13.60;92.90
39849;DHT22;25518;47.878;15.914;2023-03-26T12:08:26;13.70;90.90
39849;DHT22;25518;47.878;15.914;2023-03-26T12:11:25;13.70;90.70
39849;DHT22;25518;47.878;15.914;2023-03-26T12:14:20;14.00;91.20
39849;DHT22;25518;47.878;15.914;2023-03-26T12:17:14;14.00;91.90
39849;DHT22;25518;47.878;15.914;2023-03-26T12:20:32;13.70;91.40
39849;DHT22;25518;47.878;15.914;2023-03-26T12:23:43;13.70;91.50
39849;DHT22;25518;47.878;15.914;2023-03-26T12:26:40;13.90;93.60
39849;DHT22;25518;47.878;15.914;2023-03-26T12:29:31;13.70;93.70
39849;DHT22;25518;47.878;15.914;2023-03-26T12:32:23;13.60;93.10
39849;DHT22;25518;47.878;15.914;2023-03-26T12:35:17;13.50;94.40
39849;DHT22;25518;47.878;15.914;2023-03-26T12:41:39;13.60;94.50
39849;DHT22;25518;47.878;15.914;2023-03-26T12:44:34;13.50;92.70
39849;DHT22;25518;47.878;15.914;2023-03-26T12:47:30;13.50;93.30
39849;DHT22;25518;47.878;15.914;2023-03-26T12:50:24;13.70;93.80
39849;DHT22;25518;47.878;15.914;2023-03-26T12:56:34;13.80;92.80
39849;DHT22;25518;47.878;15.914;2023-03-26T13:06:40;14.10;91.30
39849;DHT22;25518;47.878;15.914;2023-03-26T13:09:20;14.20;92.40
39849;DHT22;25518;47.878;15.914;2023-03-26T13:33:39;14.40;90.80
39849;DHT22;25518;47.878;15.914;2023-03-26T13:36:22;14.50;91.10
39849;DHT22;25518;47.878;15.914;2023-03-26T13:39:25;14.30;91.20
39849;DHT22;25518;47.878;15.914;2023-03-26T13:48:28;14.00;88.20
39849;DHT22;25518;47.878;15.914;2023-03-26T13:51:26;13.90;87.50
39849;DHT22;25518;47.878;15.914;2023-03-26T14:00:16;14.20;89.70
39849;DHT22;25518;47.878;15.914;2023-03-26T14:03:17;14.20;91.40
39849;DHT22;25518;47.878;15.914;2023-03-26T14:06:58;14.10;85.50
39849;DHT22;25518;47.878;15.914;2023-03-26T14:09:42;14.10;87.90
39849;DHT22;25518;47.878;15.914;2023-03-26T14:15:56;13.90;90.30
39849;DHT22;25518;47.878;15.914;2023-03-26T14:22:10;14.00;90.00
39849;DHT22;25518;47.878;15.914;2023-03-26T14:25:20;13.90;88.00
39849;DHT22;25518;47.878;15.914;2023-03-26T14:28:27;14.00;87.00
39849;DHT22;25518;47.878;15.914;2023-03-26T14:31:25;14.10;87.20
39849;DHT22;25518;47.878;15.914;2023-03-26T14:47:27;13.70;90.90
39849;DHT22;25518;47.878;15.914;2023-03-26T14:50:26;11.80;90.20
39849;DHT22;25518;47.878;15.914;2023-03-26T14:53:30;13.60;90.10
39849;DHT22;25518;47.878;15.914;2023-03-26T14:56:41;13.40;89.80
39849;DHT22;25518;47.878;15.914;2023-03-26T15:47:16;12.70;93.30
39849;DHT22;25518;47.878;15.914;2023-03-26T15:50:12;12.60;94.10
39849;DHT22;25518;47.878;15.914;2023-03-26T15:59:07;12.10;95.20
39849;DHT22;25518;47.878;15.914;2023-03-26T16:07:54;12.00;97.60
39849;DHT22;25518;47.878;15.914;2023-03-26T16:10:54;11.90;96.60
39849;DHT22;25518;47.878;15.914;2023-03-26T16:14:09;11.80;96.50
39849;DHT22;25518;47.878;15.914;2023-03-26T16:17:03;11.80;97.30
39849;DHT22;25518;47.878;15.914;2023-03-26T16:20:30;11.70;96.50
39849;DHT22;25518;47.878;15.914;2023-03-26T16:23:04;11.70;96.80
39849;DHT22;25518;47.878;15.914;2023-03-26T16:26:10;11.80;97.40
39849;DHT22;25518;47.878;15.914;2023-03-26T16:29:27;11.70;96.90
39849;DHT22;25518;47.878;15.914;2023-03-26T16:32:24;11.60;98.00
39849;DHT22;25518;47.878;15.914;2023-03-26T16:38:15;11.30;99.90
39849;DHT22;25518;47.878;15.914;2023-03-26T16:41:17;11.10;99.90
39849;DHT22;25518;47.878;15.914;2023-03-26T16:47:31;10.80;99.90
39849;DHT22;25518;47.878;15.914;2023-03-26T17:09:00;10.20;99.90
39849;DHT22;25518;47.878;15.914;2023-03-26T17:18:23;10.00;99.90
39849;DHT22;25518;47.878;15.914;2023-03-26T17:21:18;10.00;99.90
39849;DHT22;25518;47.878;15.914;2023-03-26T17:24:20;10.00;99.90
39849;DHT22;25518;47.878;15.914;2023-03-26T17:33:36;10.00;99.90
39849;DHT22;25518;47.878;15.914;2023-03-26T17:36:34;9.90;99.90
39849;DHT22;25518;47.878;15.914;2023-03-26T17:42:35;9.80;99.90
39849;DHT22;25518;47.878;15.914;2023-03-26T17:45:28;9.80;99.90
39849;DHT22;25518;47.878;15.914;2023-03-26T17:48:20;9.60;99.90
39849;DHT22;25518;47.878;15.914;2023-03-26T17:51:38;9.60;99.90
39849;DHT22;25518;47.878;15.914;2023-03-26T17:57:35;9.50;99.90
39849;DHT22;25518;47.878;15.914;2023-03-26T18:03:27;9.60;99.90
39849;DHT22;25518;47.878;15.914;2023-03-26T18:16:20;9.60;99.90
39849;DHT22;25518;47.878;15.914;2023-03-26T18:19:15;9.50;99.90
39849;DHT22;25518;47.878;15.914;2023-03-26T18:22:19;9.50;99.90
39849;DHT22;25518;47.878;15.914;2023-03-26T18:25:21;9.50;99.90
39849;DHT22;25518;47.878;15.914;2023-03-26T18:28:13;9.50;99.90
39849;DHT22;25518;47.878;15.914;2023-03-26T18:31:14;9.40;99.90
39849;DHT22;25518;47.878;15.914;2023-03-26T18:34:13;9.40;99.90
39849;DHT22;25518;47.878;15.914;2023-03-26T18:40:09;9.40;99.90
39849;DHT22;25518;47.878;15.914;2023-03-26T18:43:00;9.40;99.90
39849;DHT22;25518;47.878;15.914;2023-03-26T18:45:50;9.40;99.90
39849;DHT22;25518;47.878;15.914;2023-03-26T18:48:43;9.40;99.90
39849;DHT22;25518;47.878;15.914;2023-03-26T18:51:32;9.30;99.90
39849;DHT22;25518;47.878;15.914;2023-03-26T18:54:22;9.30;99.90
39849;DHT22;25518;47.878;15.914;2023-03-26T18:57:21;9.20;99.90
39849;DHT22;25518;47.878;15.914;2023-03-26T19:00:22;9.20;99.90
39849;DHT22;25518;47.878;15.914;2023-03-26T19:03:15;7.80;99.90
39849;DHT22;25518;47.878;15.914;2023-03-26T19:06:09;9.10;99.90
39849;DHT22;25518;47.878;15.914;2023-03-26T19:09:03;9.20;99.90
39849;DHT22;25518;47.878;15.914;2023-03-26T19:12:03;9.10;99.90
39849;DHT22;25518;47.878;15.914;2023-03-26T19:17:50;9.10;99.90
39849;DHT22;25518;47.878;15.914;2023-03-26T19:20:48;9.20;99.90
39849;DHT22;25518;47.878;15.914;2023-03-26T19:23:40;9.10;99.90
39849;DHT22;25518;47.878;15.914;2023-03-26T19:26:30;9.20;99.90
39849;DHT22;25518;47.878;15.914;2023-03-26T19:29:26;9.20;99.90
39849;DHT22;25518;47.878;15.914;2023-03-26T19:32:20;9.20;99.90
39849;DHT22;25518;47.878;15.914;2023-03-26T19:35:20;9.20;99.90
39849;DHT22;25518;47.878;15.914;2023-03-26T19:41:31;9.20;99.90
39849;DHT22;25518;47.878;15.914;2023-03-26T19:44:28;9.10;99.90
39849;DHT22;25518;47.878;15.914;2023-03-26T19:47:21;9.10;99.90
39849;DHT22;25518;47.878;15.914;2023-03-26T19:50:29;9.10;99.90
39849;DHT22;25518;47.878;15.914;2023-03-26T19:53:23;9.00;99.90
39849;DHT22;25518;47.878;15.914;2023-03-26T19:56:19;7.90;99.90
39849;DHT22;25518;47.878;15.914;2023-03-26T19:59:09;8.90;99.90
39849;DHT22;25518;47.878;15.914;2023-03-26T20:01:59;9.00;99.90
39849;DHT22;25518;47.878;15.914;2023-03-26T20:04:49;9.00;99.90
39849;DHT22;25518;47.878;15.914;2023-03-26T20:07:39;8.90;99.90
39849;DHT22;25518;47.878;15.914;2023-03-26T20:10:29;8.90;99.90
39849;DHT22;25518;47.878;15.914;2023-03-26T20:13:18;8.90;99.90
39849;DHT22;25518;47.878;15.914;2023-03-26T20:16:11;8.80;99.90
39849;DHT22;25518;47.878;15.914;2023-03-26T20:19:01;8.90;99.90
39849;DHT22;25518;47.878;15.914;2023-03-26T20:21:52;8.70;99.90
39849;DHT22;25518;47.878;15.914;2023-03-26T20:24:43;8.80;99.90
39849;DHT22;25518;47.878;15.914;2023-03-26T20:27:33;8.60;99.90
39849;DHT22;25518;47.878;15.914;2023-03-26T20:30:24;8.70;99.90
39849;DHT22;25518;47.878;15.914;2023-03-26T20:33:20;8.60;99.90
39849;DHT22;25518;47.878;15.914;2023-03-26T20:36:13;8.50;99.90
39849;DHT22;25518;47.878;15.914;2023-03-26T20:39:04;8.50;99.90
39849;DHT22;25518;47.878;15.914;2023-03-26T20:41:54;8.50;99.90
39849;DHT22;25518;47.878;15.914;2023-03-26T20:44:44;8.30;99.90
39849;DHT22;25518;47.878;15.914;2023-03-26T20:47:35;8.20;99.90
39849;DHT22;25518;47.878;15.914;2023-03-26T20:50:26;8.30;99.90
39849;DHT22;25518;47.878;15.914;2023-03-26T20:53:16;8.30;99.90
39849;DHT22;25518;47.878;15.914;2023-03-26T20:56:10;8.40;99.90
39849;DHT22;25518;47.878;15.914;2023-03-26T20:59:01;8.30;99.90
39849;DHT22;25518;47.878;15.914;2023-03-26T21:01:55;8.10;99.90
39849;DHT22;25518;47.878;15.914;2023-03-26T21:04:45;8.10;99.90
39849;DHT22;25518;47.878;15.914;2023-03-26T21:07:38;8.00;99.90
39849;DHT22;25518;47.878;15.914;2023-03-26T21:10:28;8.00;99.90
39849;DHT22;25518;47.878;15.914;2023-03-26T21:16:19;7.90;99.90
39849;DHT22;25518;47.878;15.914;2023-03-26T21:19:09;8.10;99.90
39849;DHT22;25518;47.878;15.914;2023-03-26T21:25:01;8.20;99.90
39849;DHT22;25518;47.878;15.914;2023-03-26T21:30:57;8.20;99.90
39849;DHT22;25518;47.878;15.914;2023-03-26T21:33:48;8.10;99.90
39849;DHT22;25518;47.878;15.914;2023-03-26T21:36:39;8.00;99.90
39849;DHT22;25518;47.878;15.914;2023-03-26T21:39:29;8.00;99.90
39849;DHT22;25518;47.878;15.914;2023-03-26T21:42:19;8.00;99.90
39849;DHT22;25518;47.878;15.914;2023-03-26T21:45:09;8.10;99.90
39849;DHT22;25518;47.878;15.914;2023-03-26T21:48:00;8.00;99.90
39849;DHT22;25518;47.878;15.914;2023-03-26T21:50:49;8.10;99.90
39849;DHT22;25518;47.878;15.914;2023-03-26T21:53:41;8.10;99.90
39849;DHT22;25518;47.878;15.914;2023-03-26T21:59:38;7.90;99.90
39849;DHT22;25518;47.878;15.914;2023-03-26T22:05:58;7.90;99.90
39849;DHT22;25518;47.878;15.914;2023-03-26T22:08:49;8.10;99.90
39849;DHT22;25518;47.878;15.914;2023-03-26T22:11:39;8.20;99.90
39849;DHT22;25518;47.878;15.914;2023-03-26T22:14:30;8.30;99.90
39849;DHT22;25518;47.878;15.914;2023-03-26T22:17:21;8.30;99.90
39849;DHT22;25518;47.878;15.914;2023-03-26T22:20:13;8.30;99.90
39849;DHT22;25518;47.878;15.914;2023-03-26T22:23:03;8.40;99.90
39849;DHT22;25518;47.878;15.914;2023-03-26T22:25:54;8.30;99.90
39849;DHT22;25518;47.878;15.914;2023-03-26T22:28:44;8.30;99.90
39849;DHT22;25518;47.878;15.914;2023-03-26T22:31:37;8.20;99.90
39849;DHT22;25518;47.878;15.914;2023-03-26T22:34:27;8.10;99.90
39849;DHT22;25518;47.878;15.914;2023-03-26T22:37:17;8.10;99.90
39849;DHT22;25518;47.878;15.914;2023-03-26T22:40:07;8.20;99.90
39849;DHT22;25518;47.878;15.914;2023-03-26T22:42:57;8.10;99.90
39849;DHT22;25518;47.878;15.914;2023-03-26T22:45:50;8.20;99.90
39849;DHT22;25518;47.878;15.914;2023-03-26T22:48:41;8.10;99.90
39849;DHT22;25518;47.878;15.914;2023-03-26T22:51:33;8.00;99.90
39849;DHT22;25518;47.878;15.914;2023-03-26T22:54:23;8.10;99.90
39849;DHT22;25518;47.878;15.914;2023-03-26T22:57:13;8.20;99.90
39849;DHT22;25518;47.878;15.914;2023-03-26T23:00:08;8.30;99.90
39849;DHT22;25518;47.878;15.914;2023-03-26T23:03:04;8.20;99.90
39849;DHT22;25518;47.878;15.914;2023-03-26T23:05:55;8.30;99.90
39849;DHT22;25518;47.878;15.914;2023-03-26T23:08:45;8.30;99.90
39849;DHT22;25518;47.878;15.914;2023-03-26T23:11:35;8.20;99.90
39849;DHT22;25518;47.878;15.914;2023-03-26T23:14:25;8.30;99.90
39849;DHT22;25518;47.878;15.914;2023-03-26T23:17:14;8.30;99.90
39849;DHT22;25518;47.878;15.914;2023-03-26T23:20:05;8.20;99.90
39849;DHT22;25518;47.878;15.914;2023-03-26T23:23:03;8.30;99.90
39849;DHT22;25518;47.878;15.914;2023-03-26T23:25:53;8.20;99.90
39849;DHT22;25518;47.878;15.914;2023-03-26T23:28:43;8.20;99.90
39849;DHT22;25518;47.878;15.914;2023-03-26T23:31:33;8.40;99.90
39849;DHT22;25518;47.878;15.914;2023-03-26T23:34:23;8.40;99.90
39849;DHT22;25518;47.878;15.914;2023-03-26T23:37:13;8.40;99.90
39849;DHT22;25518;47.878;15.914;2023-03-26T23:40:11;8.40;99.90
39849;DHT22;25518;47.878;15.914;2023-03-26T23:43:02;8.30;99.90
39849;DHT22;25518;47.878;15.914;2023-03-26T23:45:52;8.40;99.90
39849;DHT22;25518;47.878;15.914;2023-03-26T23:48:42;8.40;99.90
39849;DHT22;25518;47.878;15.914;2023-03-26T23:51:32;8.30;99.90
39849;DHT22;25518;47.878;15.914;2023-03-26T23:54:24;8.30;99.90
39849;DHT22;25518;47.878;15.914;2023-03-26T23:57:14;8.30;99.90
